createdAt,value
2019-05-15T00:02:27.985Z,3.75
2019-05-15T00:04:58.539Z,4.58
2019-05-15T00:07:29.359Z,4.78
2019-05-15T00:09:58.576Z,5.05
2019-05-15T00:12:28.420Z,5.83
2019-05-15T00:14:58.108Z,4.28
2019-05-15T00:17:28.261Z,3.87
2019-05-15T00:19:58.230Z,3.83
2019-05-15T00:22:29.023Z,8.78
2019-05-15T00:24:58.177Z,4.47
2019-05-15T00:27:28.486Z,4.15
2019-05-15T00:29:57.897Z,4.42
2019-05-15T00:32:28.267Z,2.80
2019-05-15T00:34:58.262Z,4.58
2019-05-15T00:37:28.863Z,5.03
2019-05-15T00:39:59.242Z,5.85
2019-05-15T00:42:28.468Z,7.10
2019-05-15T00:44:58.452Z,3.10
2019-05-15T00:47:28.712Z,5.45
2019-05-15T00:49:58.083Z,3.83
2019-05-15T00:52:28.268Z,4.62
2019-05-15T00:54:58.994Z,3.02
2019-05-15T00:57:28.321Z,6.40
2019-05-15T00:59:58.937Z,3.45
2019-05-15T01:02:28.660Z,4.47
2019-05-15T01:04:58.579Z,5.85
2019-05-15T01:07:28.189Z,3.42
2019-05-15T01:09:57.917Z,5.47
2019-05-15T01:12:29.031Z,4.28
2019-05-15T01:14:58.345Z,6.17
2019-05-15T01:17:29.037Z,5.08
2019-05-15T01:19:58.809Z,6.72
2019-05-15T01:22:28.669Z,12.05
2019-05-15T01:24:58.986Z,5.72
2019-05-15T01:27:29.148Z,6.50
2019-05-15T01:29:58.297Z,5.08
2019-05-15T01:32:28.407Z,5.92
2019-05-15T01:34:58.040Z,5.78
2019-05-15T01:37:28.230Z,6.22
2019-05-15T01:39:58.159Z,3.40
2019-05-15T01:42:28.039Z,5.05
2019-05-15T01:44:58.960Z,5.83
2019-05-15T01:47:28.797Z,6.35
2019-05-15T01:49:58.376Z,3.98
2019-05-15T01:52:28.093Z,4.35
2019-05-15T01:54:58.325Z,5.80
2019-05-15T01:57:28.735Z,4.67
2019-05-15T02:00:00.725Z,5.22
2019-05-15T02:02:28.122Z,6.30
2019-05-15T02:04:59.143Z,3.95
2019-05-15T02:07:28.051Z,5.53
2019-05-15T02:09:58.239Z,5.95
2019-05-15T02:12:28.595Z,4.40
2019-05-15T02:14:58.815Z,4.25
2019-05-15T02:17:28.361Z,9.50
2019-05-15T02:19:58.740Z,6.00
2019-05-15T02:22:28.496Z,4.67
2019-05-15T02:24:59.177Z,4.08
2019-05-15T02:27:29.381Z,5.37
2019-05-15T02:30:16.154Z,4.35
2019-05-15T02:32:30.210Z,7.60
2019-05-15T02:34:59.156Z,6.10
2019-05-15T02:37:29.421Z,7.22
2019-05-15T02:39:58.987Z,5.72
2019-05-15T02:42:29.404Z,7.90
2019-05-15T02:44:58.939Z,6.60
2019-05-15T02:47:29.328Z,4.58
2019-05-15T02:49:59.398Z,5.15
2019-05-15T02:52:29.915Z,6.42
2019-05-15T02:55:01.562Z,3.85
2019-05-15T02:57:30.519Z,4.15
2019-05-15T02:59:59.666Z,5.95
2019-05-15T03:02:29.428Z,6.17
2019-05-15T03:04:59.833Z,5.80
2019-05-15T03:07:29.484Z,5.37
2019-05-15T03:09:59.901Z,9.18
2019-05-15T03:12:29.288Z,8.90
2019-05-15T03:15:00.003Z,6.15
2019-05-15T03:17:29.886Z,8.35
2019-05-15T03:20:01.156Z,5.17
2019-05-15T03:22:31.371Z,7.05
2019-05-15T03:25:01.020Z,7.60
2019-05-15T03:27:34.640Z,4.83
2019-05-15T03:30:02.411Z,5.40
2019-05-15T03:32:42.056Z,8.28
2019-05-15T03:35:05.816Z,9.23
2019-05-15T03:37:39.536Z,6.37
2019-05-15T03:40:10.159Z,9.30
2019-05-15T03:42:39.643Z,7.28
2019-05-15T03:45:10.567Z,5.45
2019-05-15T03:47:40.509Z,6.42
2019-05-15T03:50:09.737Z,6.28
2019-05-15T03:52:39.871Z,5.03
2019-05-15T03:55:10.753Z,4.55
2019-05-15T03:57:40.493Z,4.67
2019-05-15T04:00:10.359Z,7.28
2019-05-15T04:02:40.007Z,7.15
2019-05-15T04:05:11.702Z,4.87
2019-05-15T04:07:41.446Z,4.45
2019-05-15T04:10:10.983Z,4.70
2019-05-15T04:12:40.915Z,10.53
2019-05-15T04:15:10.901Z,7.42
2019-05-15T04:17:41.391Z,9.38
2019-05-15T04:20:10.890Z,5.35
2019-05-15T04:22:40.617Z,7.62
2019-05-15T04:25:11.508Z,6.53
2019-05-15T04:27:43.992Z,5.20
2019-05-15T04:30:13.364Z,5.72
2019-05-15T04:32:42.430Z,11.12
2019-05-15T04:35:11.731Z,5.45
2019-05-15T04:37:41.562Z,5.25
2019-05-15T04:40:12.057Z,4.78
2019-05-15T04:42:42.823Z,7.37
2019-05-15T04:45:13.125Z,6.47
2019-05-15T04:47:42.208Z,5.80
2019-05-15T04:50:11.633Z,6.97
2019-05-15T04:52:43.366Z,15.93
2019-05-15T04:55:11.701Z,9.03
2019-05-15T04:57:41.077Z,5.92
2019-05-15T05:00:10.861Z,10.48
2019-05-15T05:02:40.577Z,11.45
2019-05-15T05:05:10.495Z,6.40
2019-05-15T05:07:39.768Z,14.10
2019-05-15T05:10:10.032Z,36.00
2019-05-15T05:12:41.463Z,29.95
2019-05-15T05:15:09.769Z,24.63
2019-05-15T05:17:39.395Z,23.65
2019-05-15T05:20:08.625Z,19.57
2019-05-15T05:22:39.216Z,15.30
2019-05-15T05:25:08.321Z,17.80
2019-05-15T05:27:38.388Z,12.82
2019-05-15T05:30:08.595Z,6.33
2019-05-15T05:32:39.034Z,6.35
2019-05-15T05:35:08.983Z,3.85
2019-05-15T05:37:38.906Z,6.20
2019-05-15T05:40:08.347Z,5.15
2019-05-15T05:42:38.932Z,3.42
2019-05-15T05:45:09.321Z,4.95
2019-05-15T05:47:39.317Z,6.40
2019-05-15T05:50:08.547Z,3.77
2019-05-15T05:52:38.954Z,3.30
2019-05-15T05:55:09.053Z,7.47
2019-05-15T05:57:38.500Z,4.20
2019-05-15T06:00:09.417Z,3.05
2019-05-15T06:02:46.857Z,5.40
2019-05-15T06:05:09.363Z,5.08
2019-05-15T06:07:38.765Z,3.95
2019-05-15T06:10:09.141Z,6.78
2019-05-15T06:12:38.952Z,9.03
2019-05-15T06:15:08.876Z,4.20
2019-05-15T06:17:39.140Z,2.42
2019-05-15T06:20:08.476Z,3.12
2019-05-15T06:22:38.665Z,4.33
2019-05-15T06:25:11.182Z,3.67
2019-05-15T06:27:39.025Z,2.95
2019-05-15T06:30:14.639Z,3.47
2019-05-15T06:32:40.279Z,6.00
2019-05-15T06:35:09.911Z,3.20
2019-05-15T06:37:39.523Z,2.20
2019-05-15T06:40:09.006Z,5.45
2019-05-15T06:42:39.438Z,2.40
2019-05-15T06:45:08.746Z,4.20
2019-05-15T06:47:39.542Z,1.65
2019-05-15T06:50:09.507Z,3.62
2019-05-15T06:52:38.298Z,3.27
2019-05-15T06:55:09.084Z,3.98
2019-05-15T06:57:39.766Z,2.25
2019-05-15T07:00:08.874Z,4.28
2019-05-15T07:02:38.194Z,3.72
2019-05-15T07:05:07.849Z,1.98
2019-05-15T07:07:38.554Z,1.65
2019-05-15T07:10:09.175Z,2.58
2019-05-15T07:12:39.084Z,2.77
2019-05-15T07:15:09.502Z,2.58
2019-05-15T07:17:39.262Z,1.82
2019-05-15T07:20:09.387Z,1.60
2019-05-15T07:22:39.113Z,1.15
2019-05-15T07:25:09.786Z,3.47
2019-05-15T07:27:39.302Z,1.75
2019-05-15T07:30:12.217Z,1.20
2019-05-15T07:32:40.526Z,1.27
2019-05-15T07:35:10.380Z,0.95
2019-05-15T07:37:39.115Z,2.30
2019-05-15T07:40:09.146Z,1.62
2019-05-15T07:42:38.826Z,2.47
2019-05-15T07:45:08.386Z,1.62
2019-05-15T07:47:38.598Z,2.47
2019-05-15T07:50:09.968Z,2.77
2019-05-15T07:52:39.807Z,2.52
2019-05-15T07:55:09.760Z,1.52
2019-05-15T07:57:39.577Z,2.87
2019-05-15T08:00:13.891Z,1.32
2019-05-15T08:02:42.893Z,1.17
2019-05-15T08:05:12.611Z,2.10
2019-05-15T08:07:41.311Z,1.62
2019-05-15T08:10:10.640Z,1.22
2019-05-15T08:12:39.491Z,1.62
2019-05-15T08:15:09.765Z,1.80
2019-05-15T08:17:58.991Z,3.10
2019-05-15T08:20:10.961Z,1.35
2019-05-15T08:22:39.689Z,1.57
2019-05-15T08:25:13.070Z,3.33
2019-05-15T08:27:39.806Z,4.62
2019-05-15T08:30:09.693Z,1.82
2019-05-15T08:32:38.970Z,1.60
2019-05-15T08:35:09.725Z,1.65
2019-05-15T08:37:38.596Z,1.87
2019-05-15T08:40:09.806Z,4.30
2019-05-15T08:42:41.926Z,3.35
2019-05-15T08:45:11.384Z,2.02
2019-05-15T08:47:40.109Z,1.47
2019-05-15T08:50:10.584Z,1.75
2019-05-15T08:52:39.620Z,1.65
2019-05-15T08:55:08.957Z,1.98
2019-05-15T08:57:38.427Z,2.62
2019-05-15T09:00:09.652Z,3.20
2019-05-15T09:02:38.634Z,1.50
2019-05-15T09:05:09.835Z,2.70
2019-05-15T09:07:38.683Z,3.08
2019-05-15T09:10:11.845Z,3.92
2019-05-15T09:12:40.560Z,1.57
2019-05-15T09:15:10.306Z,1.07
2019-05-15T09:17:39.920Z,2.27
2019-05-15T09:20:09.669Z,1.87
2019-05-15T09:22:39.548Z,3.40
2019-05-15T09:25:09.691Z,3.15
2019-05-15T09:27:38.574Z,2.80
2019-05-15T09:30:08.941Z,1.62
2019-05-15T09:32:39.314Z,5.45
2019-05-15T09:35:09.770Z,4.05
2019-05-15T09:37:38.904Z,5.10
2019-05-15T09:40:09.029Z,2.52
2019-05-15T09:42:38.847Z,3.33
2019-05-15T09:45:08.968Z,4.78
2019-05-15T09:47:39.649Z,2.72
2019-05-15T09:50:09.063Z,3.08
2019-05-15T09:52:39.635Z,1.40
2019-05-15T09:55:09.589Z,1.22
2019-05-15T09:57:38.788Z,2.08
2019-05-15T10:00:09.039Z,1.50
2019-05-15T10:02:39.496Z,1.70
2019-05-15T10:05:11.387Z,7.12
2019-05-15T10:07:40.351Z,1.92
2019-05-15T10:10:10.688Z,2.42
2019-05-15T10:12:39.436Z,2.17
2019-05-15T10:15:11.486Z,2.02
2019-05-15T10:17:44.549Z,3.42
2019-05-15T10:20:14.362Z,8.98
2019-05-15T10:22:43.121Z,5.83
2019-05-15T10:25:12.133Z,2.60
2019-05-15T10:27:40.803Z,2.62
2019-05-15T10:30:11.679Z,1.90
2019-05-15T10:32:40.723Z,2.42
2019-05-15T10:35:24.486Z,2.52
2019-05-15T10:37:40.366Z,2.30
2019-05-15T10:40:11.318Z,2.35
2019-05-15T10:42:40.241Z,2.70
2019-05-15T10:45:10.666Z,1.98
2019-05-15T10:47:39.869Z,3.15
2019-05-15T10:50:09.758Z,2.20
2019-05-15T10:52:38.961Z,2.30
2019-05-15T10:55:09.558Z,2.15
2019-05-15T10:57:42.813Z,1.67
2019-05-15T11:00:12.794Z,2.85
2019-05-15T11:02:41.886Z,4.40
2019-05-15T11:05:14.058Z,1.55
2019-05-15T11:07:43.423Z,2.47
2019-05-15T11:10:13.077Z,4.35
2019-05-15T11:12:43.918Z,3.92
2019-05-15T11:15:18.629Z,3.60
2019-05-15T11:17:49.443Z,2.58
2019-05-15T11:20:21.242Z,3.37
2019-05-15T11:22:51.263Z,2.08
2019-05-15T11:25:22.928Z,2.35
2019-05-15T11:27:53.460Z,2.20
2019-05-15T11:30:23.085Z,2.00
2019-05-15T11:32:52.757Z,2.15
2019-05-15T11:35:22.465Z,2.02
2019-05-15T11:37:56.780Z,2.02
2019-05-15T11:42:58.951Z,3.37
2019-05-15T11:45:29.044Z,2.58
2019-05-15T11:48:00.810Z,1.90
2019-05-15T11:50:29.316Z,3.33
2019-05-15T11:52:59.237Z,2.30
2019-05-15T11:55:29.185Z,2.20
2019-05-15T11:57:59.452Z,2.42
2019-05-15T12:00:30.340Z,2.10
2019-05-15T12:02:59.180Z,6.47
2019-05-15T12:05:28.766Z,2.62
2019-05-15T12:07:58.048Z,4.12
2019-05-15T12:10:28.882Z,1.98
2019-05-15T12:12:57.143Z,1.92
2019-05-15T12:15:27.988Z,1.90
2019-05-15T12:17:59.128Z,2.45
2019-05-15T12:20:28.615Z,3.25
2019-05-15T12:22:59.445Z,3.67
2019-05-15T12:25:31.022Z,5.45
2019-05-15T12:27:59.647Z,2.72
2019-05-15T12:30:29.616Z,2.95
2019-05-15T12:33:00.532Z,1.65
2019-05-15T12:35:29.660Z,3.02
2019-05-15T12:37:59.967Z,3.55
2019-05-15T13:00:58.964Z,1.52
2019-05-15T13:03:28.912Z,2.45
2019-05-15T13:05:57.892Z,1.75
2019-05-15T13:08:29.066Z,3.00
2019-05-15T13:10:57.423Z,3.65
2019-05-15T13:13:28.340Z,3.47
2019-05-15T13:15:58.955Z,3.42
2019-05-15T13:18:30.516Z,2.27
2019-05-15T13:20:59.712Z,3.12
2019-05-15T13:23:28.753Z,2.08
2019-05-15T13:25:59.187Z,4.03
2019-05-15T13:28:28.994Z,3.60
2019-05-15T13:30:59.562Z,2.60
2019-05-15T13:33:28.874Z,2.12
2019-05-15T13:35:58.482Z,21.12
2019-05-15T13:38:28.871Z,3.27
2019-05-15T13:40:58.884Z,1.70
2019-05-15T13:43:29.003Z,2.33
2019-05-15T13:45:58.306Z,1.75
2019-05-15T13:48:29.386Z,1.60
2019-05-15T13:50:58.932Z,2.47
2019-05-15T13:53:28.601Z,2.17
2019-05-15T13:55:57.268Z,1.65
2019-05-15T13:58:28.011Z,1.75
2019-05-15T14:00:58.801Z,2.00
2019-05-15T14:03:28.443Z,2.67
2019-05-15T14:05:58.489Z,2.33
2019-05-15T14:08:28.785Z,2.72
2019-05-15T14:10:58.489Z,1.95
2019-05-15T14:13:29.017Z,1.25
2019-05-15T14:15:58.433Z,1.70
2019-05-15T14:18:28.670Z,1.95
2019-05-15T14:20:58.410Z,3.40
2019-05-15T14:23:29.583Z,2.75
2019-05-15T14:25:58.952Z,2.65
2019-05-15T14:28:28.519Z,5.50
2019-05-15T14:31:00.127Z,3.52
2019-05-15T14:33:30.120Z,3.60
2019-05-15T14:35:58.888Z,1.80
2019-05-15T14:38:29.180Z,3.90
2019-05-15T14:41:02.840Z,4.92
2019-05-15T14:43:32.323Z,1.95
2019-05-15T14:46:08.118Z,2.02
2019-05-15T14:48:38.621Z,3.80
2019-05-15T14:51:10.014Z,5.45
2019-05-15T14:53:38.855Z,3.20
2019-05-15T14:56:08.548Z,2.20
2019-05-15T14:58:38.696Z,3.40
2019-05-15T15:01:12.066Z,1.92
2019-05-15T15:03:38.455Z,2.33
2019-05-15T15:06:08.625Z,2.90
2019-05-15T15:08:37.482Z,1.55
2019-05-15T15:11:08.716Z,2.20
2019-05-15T15:13:38.303Z,2.25
2019-05-15T15:16:08.402Z,2.08
2019-05-15T15:18:38.566Z,2.20
2019-05-15T15:21:08.620Z,3.95
2019-05-15T15:23:38.793Z,1.60
2019-05-15T15:26:08.340Z,1.60
2019-05-15T15:28:37.181Z,2.67
2019-05-15T15:31:05.881Z,2.10
2019-05-15T15:33:34.548Z,2.52
2019-05-15T15:36:04.112Z,3.12
2019-05-15T15:38:40.062Z,3.92
2019-05-15T15:41:03.253Z,1.57
2019-05-15T15:43:33.124Z,2.75
2019-05-15T15:46:01.786Z,2.45
2019-05-15T15:48:30.500Z,2.37
2019-05-15T15:50:59.169Z,2.50
2019-05-15T15:53:28.600Z,2.00
2019-05-15T15:55:57.727Z,2.87
2019-05-15T15:58:28.851Z,4.20
2019-05-15T16:00:56.795Z,3.77
2019-05-15T16:03:28.436Z,2.30
2019-05-15T16:05:56.487Z,3.80
2019-05-15T16:08:25.173Z,1.98
2019-05-15T16:10:53.931Z,2.42
2019-05-15T16:13:22.601Z,3.37
2019-05-15T16:15:51.293Z,4.58
2019-05-15T16:18:19.954Z,2.33
2019-05-15T16:20:48.721Z,7.35
2019-05-15T16:23:18.868Z,2.33
2019-05-15T16:25:48.953Z,2.85
2019-05-15T16:28:18.442Z,2.62
2019-05-15T16:30:51.401Z,8.13
2019-05-15T16:33:18.454Z,2.85
2019-05-15T16:35:48.776Z,4.28
2019-05-15T16:38:19.253Z,3.50
2019-05-15T16:40:48.939Z,2.58
2019-05-15T16:43:18.015Z,7.72
2019-05-15T16:45:49.568Z,2.65
2019-05-15T16:48:19.320Z,3.00
2019-05-15T16:50:48.687Z,3.47
2019-05-15T16:53:18.298Z,3.12
2019-05-15T16:55:48.111Z,4.08
2019-05-15T16:58:19.249Z,2.30
2019-05-15T17:00:49.740Z,5.58
2019-05-15T17:03:18.408Z,2.85
2019-05-15T17:05:48.072Z,2.25
2019-05-15T17:08:17.948Z,2.75
2019-05-15T17:10:48.300Z,5.97
2019-05-15T17:13:17.848Z,2.72
2019-05-15T17:15:47.864Z,3.42
2019-05-15T17:18:18.148Z,2.30
2019-05-15T17:20:48.422Z,2.00
2019-05-15T17:23:18.911Z,2.98
2019-05-15T17:25:48.780Z,2.62
2019-05-15T17:28:18.674Z,3.15
2019-05-15T17:30:48.818Z,4.30
2019-05-15T17:33:18.539Z,6.00
2019-05-15T17:35:48.683Z,6.00
2019-05-15T17:38:18.450Z,4.20
2019-05-15T17:40:48.828Z,1.82
2019-05-15T17:43:19.963Z,2.37
2019-05-15T17:45:48.653Z,2.25
2019-05-15T17:48:19.563Z,3.75
2019-05-15T17:50:51.735Z,3.00
2019-05-15T17:53:18.601Z,5.37
2019-05-15T17:55:47.912Z,3.75
2019-05-15T17:58:16.914Z,3.52
2019-05-15T18:00:48.654Z,2.52
2019-05-15T18:03:19.113Z,4.00
2019-05-15T18:05:49.593Z,2.52
2019-05-15T18:08:19.456Z,3.98
2019-05-15T18:10:50.176Z,6.15
2019-05-15T18:13:21.183Z,2.40
2019-05-15T18:15:53.455Z,7.03
2019-05-15T18:18:26.953Z,6.83
2019-05-15T18:20:58.127Z,2.37
2019-05-15T18:23:27.811Z,7.90
2019-05-15T18:25:58.891Z,2.85
2019-05-15T18:28:27.680Z,1.80
2019-05-15T18:30:58.937Z,2.33
2019-05-15T18:33:31.684Z,2.05
2019-05-15T18:36:28.496Z,3.45
2019-05-15T18:42:23.658Z,2.42
2019-05-15T18:45:07.849Z,4.30
2019-05-15T18:47:59.134Z,2.58
2019-05-15T18:50:33.865Z,3.15
2019-05-15T18:53:08.951Z,3.80
2019-05-15T18:55:43.709Z,2.42
2019-05-15T18:58:14.728Z,2.45
2019-05-15T19:00:48.931Z,7.97
2019-05-15T19:03:22.255Z,2.77
2019-05-15T19:05:49.950Z,2.10
2019-05-15T19:08:23.752Z,5.03
2019-05-15T19:10:58.281Z,2.40
2019-05-15T19:13:59.426Z,5.53
2019-05-15T19:17:05.487Z,2.05
2019-05-15T19:24:18.345Z,2.12
2019-05-15T19:34:22.272Z,2.22
2019-05-15T19:37:28.394Z,2.77
2019-05-15T19:43:37.978Z,4.42
2019-05-15T19:46:07.988Z,2.20
2019-05-15T19:48:38.593Z,2.98
2019-05-15T19:51:08.952Z,6.53
2019-05-15T19:53:37.858Z,3.10
2019-05-15T19:56:08.439Z,2.33
2019-05-15T19:58:36.923Z,2.77
2019-05-15T20:01:07.859Z,2.47
2019-05-15T20:03:49.682Z,3.98
2019-05-15T20:06:08.542Z,2.70
2019-05-15T20:08:38.541Z,2.22
2019-05-15T20:11:10.318Z,4.08
2019-05-15T20:13:38.434Z,2.55
2019-05-15T20:16:13.329Z,3.05
2019-05-15T20:18:41.954Z,2.58
2019-05-15T20:21:10.875Z,2.47
2019-05-15T20:23:39.557Z,3.08
2019-05-15T20:26:08.480Z,2.37
2019-05-15T20:28:39.196Z,2.12
2019-05-15T20:31:08.081Z,1.92
2019-05-15T20:33:37.858Z,2.85
2019-05-15T20:36:08.846Z,1.90
2019-05-15T20:38:39.418Z,3.33
2019-05-15T20:41:08.371Z,3.42
2019-05-15T20:43:38.448Z,6.08
2019-05-15T20:46:08.449Z,2.92
2019-05-15T20:48:38.255Z,2.75
2019-05-15T20:51:07.080Z,2.35
2019-05-15T20:53:37.909Z,4.58
2019-05-15T20:56:08.196Z,1.67
2019-05-15T20:58:38.356Z,2.70
2019-05-15T21:01:09.138Z,1.95
2019-05-15T21:03:37.622Z,2.90
2019-05-15T21:06:12.293Z,3.10
2019-05-15T21:08:45.881Z,2.30
2019-05-15T21:11:15.143Z,6.40
2019-05-15T21:13:44.019Z,2.90
2019-05-15T21:16:12.677Z,1.52
2019-05-15T21:18:41.616Z,1.67
2019-05-15T21:21:10.654Z,1.70
2019-05-15T21:23:39.391Z,2.22
2019-05-15T21:26:10.967Z,4.03
2019-05-15T21:28:39.022Z,1.62
2019-05-15T21:31:08.868Z,3.50
2019-05-15T21:33:37.617Z,1.80
2019-05-15T21:36:07.867Z,3.92
2019-05-15T21:38:38.704Z,5.50
2019-05-15T21:41:08.005Z,3.05
2019-05-15T21:43:36.824Z,2.37
2019-05-15T21:46:05.483Z,5.05
2019-05-15T21:48:35.251Z,4.22
2019-05-15T21:51:03.929Z,3.37
2019-05-15T21:53:32.610Z,2.35
2019-05-15T21:56:01.275Z,1.30
2019-05-15T21:58:29.923Z,2.17
2019-05-15T22:00:59.276Z,1.62
2019-05-15T22:03:28.804Z,1.90
2019-05-15T22:05:58.213Z,3.15
2019-05-15T22:08:27.812Z,1.80
2019-05-15T22:10:56.879Z,1.98
2019-05-15T22:13:31.198Z,2.58
2019-05-15T22:15:58.760Z,1.60
2019-05-15T22:18:28.088Z,1.52
2019-05-15T22:20:58.522Z,5.20
2019-05-15T22:23:27.849Z,3.65
2019-05-15T22:25:58.378Z,2.90
2019-05-15T22:28:28.231Z,3.25
2019-05-15T22:30:58.432Z,1.75
2019-05-15T22:33:28.441Z,1.67
2019-05-15T22:35:59.244Z,2.33
2019-05-15T22:38:28.551Z,2.35
2019-05-15T22:40:57.414Z,1.98
2019-05-15T22:43:26.098Z,3.58
2019-05-15T22:45:54.752Z,3.12
2019-05-15T22:48:23.452Z,3.02
2019-05-15T22:50:52.110Z,5.80
2019-05-15T22:53:20.772Z,2.02
2019-05-15T22:55:49.746Z,1.85
2019-05-15T22:58:18.401Z,7.05
2019-05-15T23:00:49.042Z,3.27
2019-05-15T23:03:18.980Z,2.52
2019-05-15T23:05:47.714Z,1.95
2019-05-15T23:08:18.451Z,2.70
2019-05-15T23:10:48.561Z,5.58
2019-05-15T23:13:17.869Z,1.62
2019-05-15T23:15:47.750Z,1.37
2019-05-15T23:18:17.857Z,1.57
2019-05-15T23:20:47.861Z,4.40
2019-05-15T23:23:18.134Z,7.72
2019-05-15T23:25:48.568Z,4.65
2019-05-15T23:28:17.258Z,2.50
2019-05-15T23:30:48.388Z,5.25
2019-05-15T23:33:16.330Z,5.28
2019-05-15T23:35:48.566Z,1.75
2019-05-15T23:38:17.189Z,1.62
2019-05-15T23:40:48.156Z,2.15
2019-05-15T23:43:18.785Z,1.80
2019-05-15T23:45:48.353Z,2.65
2019-05-15T23:48:17.274Z,2.98
2019-05-15T23:50:48.472Z,4.75
2019-05-15T23:53:19.126Z,3.87
2019-05-15T23:55:46.714Z,6.42
2019-05-15T23:58:15.404Z,1.60
